createdAt,value
2022-12-25T00:00:05.766Z,99943.34
2022-12-25T00:01:37.892Z,99945.50
2022-12-25T00:03:10.120Z,99944.06
2022-12-25T00:04:42.311Z,99950.19
2022-12-25T00:06:14.751Z,99943.16
2022-12-25T00:07:46.851Z,99950.03
2022-12-25T00:09:19.006Z,99952.00
2022-12-25T00:11:07.392Z,99946.59
2022-12-25T00:12:39.592Z,99933.81
2022-12-25T00:14:11.793Z,99931.81
2022-12-25T00:15:43.896Z,99932.53
2022-12-25T00:17:16.283Z,99932.53
2022-12-25T00:18:48.762Z,99947.50
2022-12-25T00:20:20.978Z,99936.91
2022-12-25T00:21:53.019Z,99933.66
2022-12-25T00:23:25.391Z,99936.56
2022-12-25T00:24:57.441Z,99935.31
2022-12-25T00:26:29.587Z,99927.94
2022-12-25T00:28:01.634Z,99930.09
2022-12-25T00:29:33.833Z,99928.31
2022-12-25T00:31:10.768Z,99931.75
2022-12-25T00:32:43.024Z,99931.94
2022-12-25T00:34:15.091Z,99928.72
2022-12-25T00:36:00.884Z,99934.84
2022-12-25T00:37:33.042Z,99940.44
2022-12-25T00:39:05.283Z,99931.09
2022-12-25T00:40:44.302Z,99935.41
2022-12-25T00:42:19.309Z,99942.06
2022-12-25T00:43:51.345Z,99947.16
2022-12-25T00:45:23.453Z,99947.88
2022-12-25T00:46:55.715Z,99945.34
2022-12-25T00:48:29.458Z,99951.69
2022-12-25T00:50:01.746Z,99947.72
2022-12-25T00:51:35.595Z,99960.00
2022-12-25T00:53:07.852Z,99956.22
2022-12-25T00:54:39.981Z,99956.22
2022-12-25T00:56:12.075Z,99960.19
2022-12-25T00:57:44.210Z,99959.13
2022-12-25T00:59:16.276Z,99965.78
2022-12-25T01:00:49.910Z,99969.22
2022-12-25T01:02:25.383Z,99969.41
2022-12-25T01:03:57.833Z,99975.53
2022-12-25T01:05:29.942Z,99973.06
2022-12-25T01:07:02.039Z,99977.00
2022-12-25T01:08:37.025Z,99976.28
2022-12-25T01:10:22.869Z,99979.88
2022-12-25T01:11:54.943Z,99976.47
2022-12-25T01:13:31.075Z,99976.66
2022-12-25T01:15:05.325Z,99976.13
2022-12-25T01:16:37.894Z,99975.59
2022-12-25T01:18:12.890Z,99981.19
2022-12-25T01:19:45.277Z,99990.06
2022-12-25T01:21:20.122Z,99990.56
2022-12-25T01:22:52.342Z,99987.13
2022-12-25T01:24:26.067Z,99995.97
2022-12-25T01:26:08.113Z,99988.91
2022-12-25T01:27:41.979Z,99990.88
2022-12-25T01:29:14.137Z,99995.06
2022-12-25T01:30:49.744Z,99994.31
2022-12-25T01:32:21.782Z,99990.88
2022-12-25T01:33:53.913Z,99995.56
2022-12-25T01:35:26.035Z,99989.44
2022-12-25T01:36:58.285Z,99988.19
2022-12-25T01:38:30.460Z,99985.47
2022-12-25T01:40:02.512Z,99984.75
2022-12-25T01:41:35.642Z,99984.75
2022-12-25T01:43:32.089Z,99988.19
2022-12-25T01:45:25.762Z,99996.84
2022-12-25T01:46:57.703Z,99989.44
2022-12-25T01:48:34.320Z,99986.72
2022-12-25T01:50:07.084Z,99995.06
2022-12-25T01:51:41.678Z,99996.28
2022-12-25T01:53:14.095Z,99992.34
2022-12-25T01:54:55.016Z,99997.94
2022-12-25T01:56:29.044Z,99989.50
2022-12-25T01:58:01.234Z,99988.94
2022-12-25T01:59:33.435Z,99990.97
2022-12-25T02:01:05.663Z,99985.75
2022-12-25T02:02:38.431Z,99991.88
2022-12-25T02:04:17.820Z,99991.34
2022-12-25T02:05:51.037Z,99997.69
2022-12-25T02:07:26.538Z,99996.41
2022-12-25T02:08:59.380Z,99995.88
2022-12-25T02:10:31.473Z,99996.06
2022-12-25T02:12:04.242Z,100000.75
2022-12-25T02:13:36.396Z,100003.47
2022-12-25T02:15:14.516Z,99997.34
2022-12-25T02:16:57.292Z,99999.31
2022-12-25T02:18:33.365Z,100001.47
2022-12-25T02:20:47.199Z,100009.59
2022-12-25T02:22:41.048Z,100017.16
2022-12-25T02:24:40.072Z,100017.16
2022-12-25T02:26:23.074Z,100014.47
2022-12-25T02:28:10.610Z,100019.34
2022-12-25T02:29:54.784Z,100026.22
2022-12-25T02:31:45.795Z,100030.91
2022-12-25T02:33:44.150Z,100033.81
2022-12-25T02:35:31.239Z,100028.22
2022-12-25T02:37:38.050Z,100030.38
2022-12-25T02:39:39.989Z,100036.81
2022-12-25T02:41:16.014Z,100037.38
2022-12-25T02:43:10.955Z,100038.63
2022-12-25T02:45:04.634Z,100040.63
2022-12-25T02:46:55.421Z,100033.03
2022-12-25T02:48:50.699Z,100031.03
2022-12-25T02:50:43.174Z,100034.28
2022-12-25T02:52:39.302Z,100035.00
2022-12-25T02:54:32.982Z,100041.88
2022-12-25T02:56:23.617Z,100039.69
2022-12-25T02:58:18.392Z,100037.00
2022-12-25T03:00:11.060Z,100045.09
2022-12-25T03:02:03.581Z,100049.78
2022-12-25T03:03:58.989Z,100053.00
2022-12-25T03:05:51.757Z,100061.47
2022-12-25T03:07:26.153Z,100057.66
2022-12-25T03:09:21.702Z,100053.06
2022-12-25T03:11:32.507Z,100050.00
2022-12-25T03:13:11.777Z,100048.38
2022-12-25T03:15:03.701Z,100047.63
2022-12-25T03:16:54.157Z,100050.13
2022-12-25T03:18:29.244Z,100032.25
2022-12-25T03:20:19.907Z,100030.81
2022-12-25T03:22:12.999Z,100027.22
2022-12-25T03:24:09.604Z,100025.00
2022-12-25T03:26:00.622Z,100031.13
2022-12-25T03:27:34.709Z,100036.53
2022-12-25T03:29:06.917Z,100040.72
2022-12-25T03:31:06.997Z,100041.44
2022-12-25T03:32:47.663Z,100042.88
2022-12-25T03:34:54.040Z,100045.03
2022-12-25T03:36:35.558Z,100057.84
2022-12-25T03:38:41.811Z,100046.31
2022-12-25T03:40:53.093Z,100037.88
2022-12-25T03:42:49.552Z,100038.06
2022-12-25T03:45:30.907Z,100039.53
2022-12-25T03:47:35.610Z,100043.88
2022-12-25T03:49:52.768Z,100051.97
2022-12-25T03:51:49.731Z,100050.00
2022-12-25T03:53:48.488Z,100045.84
2022-12-25T03:55:40.304Z,100034.13
2022-12-25T03:57:32.707Z,100036.41
2022-12-25T03:59:24.221Z,100036.22
2022-12-25T04:01:15.402Z,100040.91
2022-12-25T04:03:06.061Z,100049.03
2022-12-25T04:04:57.297Z,100052.25
2022-12-25T04:06:47.766Z,100045.59
2022-12-25T04:08:38.432Z,100061.25
2022-12-25T04:10:29.085Z,100051.72
2022-12-25T04:12:19.838Z,100054.44
2022-12-25T04:14:10.569Z,100055.16
2022-12-25T04:16:01.449Z,100055.84
2022-12-25T04:17:52.097Z,100054.44
2022-12-25T04:19:43.118Z,100055.16
2022-12-25T04:21:33.631Z,100063.97
2022-12-25T04:23:24.625Z,100061.47
2022-12-25T04:25:15.231Z,100058.97
2022-12-25T04:27:05.821Z,100045.13
2022-12-25T04:28:56.445Z,100047.28
2022-12-25T04:30:46.798Z,100045.34
2022-12-25T04:32:37.461Z,100057.03
2022-12-25T04:34:28.160Z,100057.25
2022-12-25T04:36:09.375Z,100047.34
2022-12-25T04:37:41.547Z,100054.97
2022-12-25T04:39:13.763Z,100049.75
2022-12-25T04:40:45.865Z,100049.94
2022-12-25T04:42:18.079Z,100048.66
2022-12-25T04:43:50.237Z,100040.56
2022-12-25T04:45:22.721Z,100049.56
2022-12-25T04:46:55.010Z,100050.13
2022-12-25T04:48:27.804Z,100047.41
2022-12-25T04:49:59.938Z,100050.66
2022-12-25T04:51:32.080Z,100045.75
2022-12-25T04:53:04.210Z,100041.81
2022-12-25T04:54:38.343Z,100046.47
2022-12-25T04:56:10.506Z,100044.31
2022-12-25T04:57:42.615Z,100040.19
2022-12-25T04:59:14.779Z,100045.59
2022-12-25T05:00:46.873Z,100047.03
2022-12-25T05:02:19.200Z,100046.69
2022-12-25T05:03:51.863Z,100050.31
2022-12-25T05:05:24.398Z,100058.09
2022-12-25T05:06:56.476Z,100060.81
2022-12-25T05:08:30.620Z,100063.16
2022-12-25T05:10:02.718Z,100065.88
2022-12-25T05:11:34.872Z,100064.59
2022-12-25T05:13:06.967Z,100065.13
2022-12-25T05:14:40.180Z,100062.78
2022-12-25T05:16:15.970Z,100062.91
2022-12-25T05:17:48.175Z,100059.63
2022-12-25T05:19:20.299Z,100058.31
2022-12-25T05:20:55.831Z,100055.00
2022-12-25T05:22:27.958Z,100053.56
2022-12-25T05:24:00.025Z,100051.38
2022-12-25T05:25:32.216Z,100043.81
2022-12-25T05:27:04.336Z,100035.88
2022-12-25T05:28:36.905Z,100039.13
2022-12-25T05:30:09.504Z,100041.09
2022-12-25T05:31:41.716Z,100038.41
2022-12-25T05:33:15.279Z,100042.88
2022-12-25T05:34:47.350Z,100049.34
2022-12-25T05:36:19.474Z,100042.50
2022-12-25T05:37:51.660Z,100041.53
2022-12-25T05:39:24.311Z,100042.81
2022-12-25T05:40:56.416Z,100047.31
2022-12-25T05:42:28.571Z,100049.81
2022-12-25T05:44:00.688Z,100050.13
2022-12-25T05:45:32.788Z,100058.03
2022-12-25T05:47:05.144Z,100054.41
2022-12-25T05:48:38.125Z,100051.31
2022-12-25T05:50:11.225Z,100047.16
2022-12-25T05:51:43.352Z,100050.91
2022-12-25T05:53:16.062Z,100058.13
2022-12-25T05:54:48.215Z,100060.59
2022-12-25T05:56:20.412Z,100053.88
2022-12-25T05:57:52.526Z,100053.88
2022-12-25T05:59:24.659Z,100060.84
2022-12-25T06:00:57.496Z,100064.59
2022-12-25T06:02:29.601Z,100062.03
2022-12-25T06:04:04.629Z,100062.53
2022-12-25T06:05:40.523Z,100064.81
2022-12-25T06:07:12.688Z,100061.19
2022-12-25T06:08:45.010Z,100056.63
2022-12-25T06:10:17.103Z,100069.72
2022-12-25T06:11:49.180Z,100063.00
2022-12-25T06:13:21.351Z,100068.50
2022-12-25T06:14:53.422Z,100068.09
2022-12-25T06:16:25.610Z,100072.38
2022-12-25T06:18:00.403Z,100071.22
2022-12-25T06:19:32.605Z,100082.31
2022-12-25T06:21:13.010Z,100072.88
2022-12-25T06:22:45.341Z,100077.34
2022-12-25T06:24:21.282Z,100088.47
2022-12-25T06:25:53.825Z,100089.50
2022-12-25T06:27:26.119Z,100092.72
2022-12-25T06:28:58.355Z,100094.69
2022-12-25T06:30:30.508Z,100089.06
2022-12-25T06:32:03.146Z,100082.41
2022-12-25T06:33:35.598Z,100085.63
2022-12-25T06:35:08.086Z,100093.94
2022-12-25T06:36:40.198Z,100079.00
2022-12-25T06:38:12.414Z,100094.47
2022-12-25T06:39:44.500Z,100099.66
2022-12-25T06:41:21.860Z,100102.13
2022-12-25T06:42:53.979Z,100098.31
2022-12-25T06:44:26.261Z,100100.28
2022-12-25T06:46:03.281Z,100102.00
2022-12-25T06:47:36.514Z,100105.25
2022-12-25T06:49:10.627Z,100113.63
2022-12-25T06:50:44.277Z,100118.31
2022-12-25T06:52:16.476Z,100107.09
2022-12-25T06:53:49.958Z,100120.38
2022-12-25T06:55:22.111Z,100118.41
2022-12-25T06:56:54.252Z,100128.69
2022-12-25T06:58:26.306Z,100129.69
2022-12-25T06:59:58.476Z,100130.94
2022-12-25T07:01:52.859Z,100134.34
2022-12-25T07:03:28.564Z,100133.63
2022-12-25T07:05:02.049Z,100132.38
2022-12-25T07:06:34.665Z,100140.00
2022-12-25T07:08:06.745Z,100137.72
2022-12-25T07:09:39.650Z,100131.97
2022-12-25T07:11:12.184Z,100133.16
2022-12-25T07:12:44.281Z,100143.88
2022-12-25T07:14:24.236Z,100144.28
2022-12-25T07:15:57.922Z,100144.91
2022-12-25T07:17:30.041Z,100151.44
2022-12-25T07:19:02.098Z,100145.75
2022-12-25T07:20:34.159Z,100145.44
2022-12-25T07:22:06.277Z,100152.50
2022-12-25T07:23:38.626Z,100155.41
2022-12-25T07:25:10.764Z,100163.19
2022-12-25T07:26:42.856Z,100163.94
2022-12-25T07:28:14.953Z,100171.00
2022-12-25T07:29:47.012Z,100167.06
2022-12-25T07:31:19.363Z,100170.16
2022-12-25T07:32:51.765Z,100162.78
2022-12-25T07:34:24.098Z,100164.94
2022-12-25T07:35:56.219Z,100164.94
2022-12-25T07:37:28.385Z,100170.16
2022-12-25T07:39:00.552Z,100174.44
2022-12-25T07:40:32.960Z,100180.34
2022-12-25T07:42:05.114Z,100181.38
2022-12-25T07:43:37.554Z,100181.50
2022-12-25T07:45:10.108Z,100182.50
2022-12-25T07:46:42.622Z,100180.63
2022-12-25T07:48:16.857Z,100184.13
2022-12-25T07:49:49.284Z,100186.94
2022-12-25T07:51:21.573Z,100184.50
2022-12-25T07:52:53.646Z,100179.44
2022-12-25T07:54:26.390Z,100183.91
2022-12-25T07:56:01.558Z,100179.75
2022-12-25T07:57:34.528Z,100180.78
2022-12-25T07:59:06.602Z,100183.06
2022-12-25T08:00:38.718Z,100180.34
2022-12-25T08:02:11.702Z,100179.41
2022-12-25T08:03:44.618Z,100171.31
2022-12-25T08:05:16.956Z,100175.78
2022-12-25T08:06:49.066Z,100164.75
2022-12-25T08:08:21.213Z,100176.06
2022-12-25T08:09:53.259Z,100174.38
2022-12-25T08:11:25.450Z,100180.50
2022-12-25T08:12:57.588Z,100180.28
2022-12-25T08:14:29.867Z,100187.13
2022-12-25T08:16:03.905Z,100190.78
2022-12-25T08:17:36.059Z,100190.06
2022-12-25T08:19:09.068Z,100193.50
2022-12-25T08:20:40.980Z,100190.06
2022-12-25T08:22:13.075Z,100192.97
2022-12-25T08:23:46.776Z,100188.31
2022-12-25T08:25:18.947Z,100198.59
2022-12-25T08:26:51.048Z,100200.97
2022-12-25T08:28:23.115Z,100204.63
2022-12-25T08:29:55.238Z,100200.91
2022-12-25T08:31:29.664Z,100199.84
2022-12-25T08:33:02.086Z,100202.06
2022-12-25T08:34:34.210Z,100203.50
2022-12-25T08:36:10.332Z,100198.31
2022-12-25T08:37:42.464Z,100198.72
2022-12-25T08:39:14.582Z,100205.81
2022-12-25T08:40:46.690Z,100212.91
2022-12-25T08:42:18.769Z,100213.81
2022-12-25T08:43:50.874Z,100210.09
2022-12-25T08:45:23.204Z,100210.50
2022-12-25T08:46:55.358Z,100207.28
2022-12-25T08:48:27.492Z,100209.19
2022-12-25T08:49:59.609Z,100205.22
2022-12-25T08:51:32.172Z,100213.53
2022-12-25T08:53:04.222Z,100207.13
2022-12-25T08:54:36.560Z,100206.59
2022-12-25T08:56:08.824Z,100209.00
2022-12-25T08:57:41.216Z,100217.31
2022-12-25T08:59:13.356Z,100218.75
2022-12-25T09:00:45.517Z,100211.59
2022-12-25T09:02:18.710Z,100209.09
2022-12-25T09:03:51.170Z,100204.44
2022-12-25T09:05:23.357Z,100201.97
2022-12-25T09:06:55.950Z,100211.69
2022-12-25T09:08:28.017Z,100213.88
2022-12-25T09:10:00.160Z,100218.25
2022-12-25T09:11:32.356Z,100208.63
2022-12-25T09:13:05.215Z,100206.41
2022-12-25T09:14:37.309Z,100211.50
2022-12-25T09:16:15.277Z,100216.59
2022-12-25T09:17:47.623Z,100212.13
2022-12-25T09:19:19.866Z,100216.50
2022-12-25T09:21:04.268Z,100216.00
2022-12-25T09:22:36.436Z,100207.53
2022-12-25T09:24:08.771Z,100202.88
2022-12-25T09:25:40.930Z,100198.22
2022-12-25T09:27:13.130Z,100202.56
2022-12-25T09:28:51.245Z,100194.25
2022-12-25T09:30:24.262Z,100198.09
2022-12-25T09:31:56.420Z,100201.94
2022-12-25T09:33:28.618Z,100204.84
2022-12-25T09:35:00.789Z,100204.09
2022-12-25T09:36:32.927Z,100211.19
2022-12-25T09:38:05.046Z,100204.53
2022-12-25T09:39:42.163Z,100210.13
2022-12-25T09:41:29.954Z,100208.88
2022-12-25T09:43:03.820Z,100209.59
2022-12-25T09:44:40.577Z,100208.34
2022-12-25T09:46:17.313Z,100206.59
2022-12-25T09:47:50.588Z,100209.00
2022-12-25T09:49:37.310Z,100202.88
2022-12-25T09:51:14.928Z,100209.00
2022-12-25T09:53:12.802Z,100214.59
2022-12-25T09:54:44.896Z,100208.13
2022-12-25T09:56:26.490Z,100215.00
2022-12-25T09:58:01.160Z,100219.38
2022-12-25T09:59:33.274Z,100220.81
2022-12-25T10:01:13.864Z,100216.38
2022-12-25T10:03:07.775Z,100221.22
2022-12-25T10:05:18.444Z,100222.88
2022-12-25T10:07:16.069Z,100222.25
2022-12-25T10:09:09.162Z,100211.63
2022-12-25T10:10:52.685Z,100212.56
2022-12-25T10:12:37.665Z,100211.31
2022-12-25T10:14:29.965Z,100213.28
2022-12-25T10:16:11.157Z,100214.44
2022-12-25T10:17:50.059Z,100214.59
2022-12-25T10:19:24.963Z,100205.25
2022-12-25T10:21:01.404Z,100203.28
2022-12-25T10:22:42.459Z,100197.03
2022-12-25T10:24:30.892Z,100195.97
2022-12-25T10:26:04.505Z,100191.69
2022-12-25T10:27:42.943Z,100198.03
2022-12-25T10:29:19.563Z,100196.66
2022-12-25T10:30:52.602Z,100184.03
2022-12-25T10:32:24.779Z,100194.50
2022-12-25T10:33:57.566Z,100190.25
2022-12-25T10:35:31.638Z,100189.91
2022-12-25T10:37:03.784Z,100180.94
2022-12-25T10:38:36.841Z,100182.59
2022-12-25T10:40:24.124Z,100180.25
2022-12-25T10:42:08.646Z,100173.09
2022-12-25T10:43:49.051Z,100180.84
2022-12-25T10:45:21.672Z,100179.78
2022-12-25T10:46:58.158Z,100178.94
2022-12-25T10:48:32.564Z,100176.44
2022-12-25T10:50:20.227Z,100172.63
2022-12-25T10:51:52.599Z,100179.38
2022-12-25T10:53:27.381Z,100168.72
2022-12-25T10:55:11.315Z,100169.47
2022-12-25T10:56:53.539Z,100168.38
2022-12-25T10:58:26.057Z,100166.94
2022-12-25T10:59:58.198Z,100167.16
2022-12-25T11:01:30.396Z,100178.38
2022-12-25T11:03:02.653Z,100175.69
2022-12-25T11:04:35.844Z,100175.31
2022-12-25T11:06:21.021Z,100181.66
2022-12-25T11:07:56.187Z,100169.78
2022-12-25T11:09:28.901Z,100163.47
2022-12-25T11:11:06.574Z,100162.19
2022-12-25T11:12:43.367Z,100159.31
2022-12-25T11:14:20.773Z,100160.53
2022-12-25T11:16:15.237Z,100167.56
2022-12-25T11:17:49.730Z,100161.44
2022-12-25T11:19:24.352Z,100163.97
2022-12-25T11:20:59.163Z,100161.03
2022-12-25T11:22:31.360Z,100156.88
2022-12-25T11:24:06.934Z,100147.84
2022-12-25T11:25:38.966Z,100144.59
2022-12-25T11:27:27.668Z,100148.59
2022-12-25T11:28:59.866Z,100149.84
2022-12-25T11:30:34.522Z,100148.38
2022-12-25T11:32:16.531Z,100144.22
2022-12-25T11:33:55.176Z,100150.19
2022-12-25T11:35:32.284Z,100148.44
2022-12-25T11:37:11.305Z,100152.78
2022-12-25T11:38:43.559Z,100152.63
2022-12-25T11:40:21.009Z,100148.66
2022-12-25T11:42:17.666Z,100145.06
2022-12-25T11:43:56.088Z,100132.97
2022-12-25T11:45:36.407Z,100123.78
2022-12-25T11:47:19.947Z,100128.84
2022-12-25T11:49:00.661Z,100122.03
2022-12-25T11:50:42.988Z,100115.34
2022-12-25T11:52:17.214Z,100117.69
2022-12-25T11:53:54.122Z,100109.03
2022-12-25T11:55:46.319Z,100103.81
2022-12-25T11:57:18.931Z,100102.00
2022-12-25T11:59:18.245Z,100110.50
2022-12-25T12:00:54.694Z,100112.88
2022-12-25T12:02:35.690Z,100109.06
2022-12-25T12:04:16.142Z,100107.09
2022-12-25T12:05:51.786Z,100114.13
2022-12-25T12:07:32.333Z,100117.03
2022-12-25T12:09:14.879Z,100112.88
2022-12-25T12:11:18.828Z,100117.41
2022-12-25T12:13:11.466Z,100116.69
2022-12-25T12:14:52.551Z,100108.19
2022-12-25T12:16:24.953Z,100108.19
2022-12-25T12:18:31.032Z,100111.47
2022-12-25T12:20:34.115Z,100103.16
2022-12-25T12:22:06.724Z,100097.22
2022-12-25T12:23:48.486Z,100096.66
2022-12-25T12:25:22.036Z,100084.91
2022-12-25T12:27:03.908Z,100098.81
2022-12-25T12:28:47.181Z,100099.22
2022-12-25T12:30:24.431Z,100095.03
2022-12-25T12:32:01.932Z,100094.66
2022-12-25T12:33:40.436Z,100097.91
2022-12-25T12:35:18.133Z,100098.84
2022-12-25T12:36:53.288Z,100095.72
2022-12-25T12:38:26.030Z,100096.28
2022-12-25T12:39:58.620Z,100092.13
2022-12-25T12:41:49.621Z,100096.81
2022-12-25T12:43:52.700Z,100099.00
2022-12-25T12:45:37.801Z,100103.84
2022-12-25T12:47:29.388Z,100098.41
2022-12-25T12:49:20.141Z,100089.19
2022-12-25T12:51:06.205Z,100082.34
2022-12-25T12:52:41.057Z,100087.03
2022-12-25T12:54:23.287Z,100096.94
2022-12-25T12:55:56.330Z,100096.94
2022-12-25T12:57:32.906Z,100092.59
2022-12-25T12:59:05.077Z,100093.69
2022-12-25T13:00:49.091Z,100087.88
2022-12-25T13:02:51.126Z,100091.84
2022-12-25T13:04:52.147Z,100084.28
2022-12-25T13:07:03.326Z,100076.16
2022-12-25T13:09:03.931Z,100083.34
2022-12-25T13:10:40.771Z,100087.13
2022-12-25T13:12:15.069Z,100082.09
2022-12-25T13:13:49.404Z,100073.03
2022-12-25T13:15:24.954Z,100077.00
2022-12-25T13:16:57.189Z,100080.25
2022-12-25T13:18:31.726Z,100071.19
2022-12-25T13:20:05.111Z,100070.81
2022-12-25T13:21:37.288Z,100071.16
2022-12-25T13:23:26.463Z,100058.16
2022-12-25T13:25:05.166Z,100070.06
2022-12-25T13:26:38.992Z,100072.59
2022-12-25T13:28:14.903Z,100069.50
2022-12-25T13:29:47.000Z,100063.19
2022-12-25T13:31:22.571Z,100060.81
2022-12-25T13:32:57.020Z,100062.06
2022-12-25T13:34:32.825Z,100058.47
2022-12-25T13:36:11.147Z,100064.41
2022-12-25T13:37:44.491Z,100053.00
2022-12-25T13:39:18.161Z,100046.69
2022-12-25T13:41:14.257Z,100047.22
2022-12-25T13:42:47.415Z,100042.84
2022-12-25T13:44:29.983Z,100046.63
2022-12-25T13:46:02.259Z,100056.56
2022-12-25T13:47:37.120Z,100046.78
2022-12-25T13:49:15.267Z,100047.13
2022-12-25T13:50:56.721Z,100041.34
2022-12-25T13:52:37.758Z,100050.53
2022-12-25T13:54:13.106Z,100054.16
2022-12-25T13:55:52.526Z,100057.38
2022-12-25T13:57:29.137Z,100057.91
2022-12-25T13:59:01.631Z,100048.72
2022-12-25T14:00:39.591Z,100050.19
2022-12-25T14:02:20.855Z,100048.00
2022-12-25T14:03:54.710Z,100041.88
2022-12-25T14:05:39.820Z,100039.53
2022-12-25T14:07:20.715Z,100048.59
2022-12-25T14:08:54.768Z,100046.44
2022-12-25T14:10:34.715Z,100051.69
2022-12-25T14:12:08.600Z,100058.41
2022-12-25T14:13:44.394Z,100051.94
2022-12-25T14:15:20.955Z,100049.59
2022-12-25T14:16:56.346Z,100065.00
2022-12-25T14:18:30.015Z,100061.19
2022-12-25T14:20:07.921Z,100070.22
2022-12-25T14:21:49.318Z,100067.53
2022-12-25T14:23:21.593Z,100068.63
2022-12-25T14:24:54.060Z,100064.47
2022-12-25T14:26:31.907Z,100068.09
2022-12-25T14:28:09.139Z,100070.28
2022-12-25T14:29:44.762Z,100063.44
2022-12-25T14:31:17.197Z,100069.56
2022-12-25T14:32:53.553Z,100063.44
2022-12-25T14:34:27.583Z,100062.16
2022-12-25T14:35:59.994Z,100060.50
2022-12-25T14:37:34.341Z,100072.44
2022-12-25T14:39:21.243Z,100070.28
2022-12-25T14:41:07.612Z,100067.91
2022-12-25T14:42:39.758Z,100077.47
2022-12-25T14:44:32.136Z,100077.28
2022-12-25T14:46:08.150Z,100076.19
2022-12-25T14:47:53.567Z,100072.94
2022-12-25T14:49:25.888Z,100072.56
2022-12-25T14:51:08.005Z,100061.56
2022-12-25T14:52:44.560Z,100064.59
2022-12-25T14:54:20.341Z,100068.03
2022-12-25T14:55:54.122Z,100066.41
2022-12-25T14:57:33.998Z,100059.53
2022-12-25T14:59:09.627Z,100060.59
2022-12-25T15:00:42.543Z,100070.16
2022-12-25T15:02:18.321Z,100063.28
2022-12-25T15:03:50.881Z,100059.13
2022-12-25T15:05:27.208Z,100071.94
2022-12-25T15:07:07.042Z,100058.94
2022-12-25T15:08:40.259Z,100056.78
2022-12-25T15:10:57.604Z,100067.63
2022-12-25T15:12:06.224Z,100074.44
2022-12-25T15:13:38.355Z,100076.47
2022-12-25T15:15:10.653Z,100070.69
2022-12-25T15:16:46.043Z,100064.56
2022-12-25T15:18:20.231Z,100063.09
2022-12-25T15:19:54.615Z,100060.03
2022-12-25T15:21:30.159Z,100061.13
2022-12-25T15:23:18.835Z,100056.97
2022-12-25T15:24:54.711Z,100058.78
2022-12-25T15:26:32.321Z,100057.16
2022-12-25T15:28:10.879Z,100047.94
2022-12-25T15:30:09.156Z,100052.09
2022-12-25T15:31:39.893Z,100054.09
2022-12-25T15:33:15.646Z,100054.09
2022-12-25T15:34:49.975Z,100048.66
2022-12-25T15:36:22.842Z,100038.03
2022-12-25T15:37:54.928Z,100053.00
2022-12-25T15:39:27.002Z,100044.34
2022-12-25T15:40:59.434Z,100043.63
2022-12-25T15:42:31.453Z,100047.59
2022-12-25T15:44:05.443Z,100045.41
2022-12-25T15:45:38.306Z,100036.41
2022-12-25T15:47:11.059Z,100041.28
2022-12-25T15:48:43.321Z,100036.56
2022-12-25T15:50:17.144Z,100036.41
2022-12-25T15:51:49.262Z,100031.13
2022-12-25T15:53:21.415Z,100034.56
2022-12-25T15:54:54.239Z,100031.72
2022-12-25T15:56:26.540Z,100032.44
2022-12-25T15:57:58.688Z,100037.84
2022-12-25T15:59:31.272Z,100029.91
2022-12-25T16:01:03.585Z,100026.09
2022-12-25T16:02:35.809Z,100028.59
2022-12-25T16:04:08.040Z,100023.72
2022-12-25T16:05:40.217Z,100026.22
2022-12-25T16:07:21.728Z,100018.47
2022-12-25T16:08:53.845Z,100017.94
2022-12-25T16:10:26.027Z,100008.91
2022-12-25T16:11:58.203Z,100013.97
2022-12-25T16:13:30.417Z,100012.31
2022-12-25T16:15:02.646Z,100012.66
2022-12-25T16:16:35.555Z,100006.00
2022-12-25T16:18:10.342Z,100004.75
2022-12-25T16:19:44.850Z,99993.19
2022-12-25T16:21:19.997Z,100000.06
2022-12-25T16:22:52.087Z,100001.50
2022-12-25T16:24:24.324Z,99993.38
2022-12-25T16:25:56.431Z,99991.41
2022-12-25T16:27:28.554Z,99996.81
2022-12-25T16:29:06.761Z,99999.00
2022-12-25T16:30:40.368Z,100001.88
2022-12-25T16:32:13.703Z,100004.56
2022-12-25T16:33:45.843Z,100017.59
2022-12-25T16:35:17.997Z,100020.47
2022-12-25T16:36:50.093Z,100019.94
2022-12-25T16:38:22.291Z,100017.97
2022-12-25T16:39:54.511Z,100020.66
2022-12-25T16:41:26.744Z,100018.72
2022-12-25T16:42:59.205Z,100018.72
2022-12-25T16:44:31.361Z,100026.28
2022-12-25T16:46:10.291Z,100034.41
2022-12-25T16:47:42.419Z,100032.44
2022-12-25T16:49:14.931Z,100035.66
2022-12-25T16:50:47.116Z,100020.66
2022-12-25T16:52:19.253Z,100032.03
2022-12-25T16:53:51.336Z,100021.94
2022-12-25T16:55:29.456Z,100011.09
2022-12-25T16:57:02.289Z,100006.41
2022-12-25T16:58:34.963Z,100010.38
2022-12-25T17:00:08.751Z,100014.34
2022-12-25T17:01:43.441Z,100011.09
2022-12-25T17:03:15.771Z,100008.94
2022-12-25T17:04:48.454Z,100004.44
2022-12-25T17:06:28.352Z,99987.47
2022-12-25T17:08:01.184Z,99980.59
2022-12-25T17:09:35.432Z,99974.28
2022-12-25T17:11:11.809Z,99972.81
2022-12-25T17:12:45.714Z,99976.25
2022-12-25T17:14:17.678Z,99977.00
2022-12-25T17:15:50.779Z,99982.91
2022-12-25T17:17:23.285Z,99978.94
2022-12-25T17:19:04.407Z,99979.50
2022-12-25T17:20:38.129Z,99980.22
2022-12-25T17:22:10.487Z,99971.59
2022-12-25T17:23:45.072Z,99973.03
2022-12-25T17:25:17.299Z,99978.44
2022-12-25T17:26:49.455Z,99980.41
2022-12-25T17:28:21.666Z,99972.66
2022-12-25T17:29:53.821Z,99966.69
2022-12-25T17:31:26.018Z,99964.69
2022-12-25T17:32:58.229Z,99963.25
2022-12-25T17:34:30.302Z,99968.66
2022-12-25T17:36:04.289Z,99968.66
2022-12-25T17:37:36.381Z,99967.75
2022-12-25T17:39:10.484Z,99966.53
2022-12-25T17:40:42.853Z,99971.72
2022-12-25T17:42:15.022Z,99969.38
2022-12-25T17:43:48.115Z,99970.84
2022-12-25T17:45:20.379Z,99965.25
2022-12-25T17:46:52.585Z,99973.34
2022-12-25T17:48:24.953Z,99967.75
2022-12-25T17:49:57.176Z,99963.63
2022-12-25T17:51:30.868Z,99959.28
2022-12-25T17:53:05.248Z,99961.78
2022-12-25T17:54:40.542Z,99977.66
2022-12-25T17:56:14.149Z,99971.84
2022-12-25T17:57:46.400Z,99964.28
2022-12-25T17:59:18.978Z,99956.31
2022-12-25T18:00:51.391Z,99949.97
2022-12-25T18:02:23.724Z,99945.84
2022-12-25T18:03:56.365Z,99955.03
2022-12-25T18:05:28.632Z,99951.38
2022-12-25T18:07:00.762Z,99956.28
2022-12-25T18:08:38.971Z,99956.28
2022-12-25T18:10:11.973Z,99949.78
2022-12-25T18:11:44.093Z,99949.97
2022-12-25T18:13:16.341Z,99954.13
2022-12-25T18:14:48.516Z,99954.84
2022-12-25T18:16:23.204Z,99951.09
2022-12-25T18:17:55.354Z,99955.78
2022-12-25T18:19:27.524Z,99952.53
2022-12-25T18:21:00.049Z,99939.00
2022-12-25T18:22:34.257Z,99945.84
2022-12-25T18:24:07.469Z,99948.94
2022-12-25T18:25:41.609Z,99948.94
2022-12-25T18:27:14.156Z,99948.03
2022-12-25T18:28:47.514Z,99939.91
2022-12-25T18:30:20.111Z,99942.81
2022-12-25T18:31:52.366Z,99929.28
2022-12-25T18:33:24.979Z,99937.06
2022-12-25T18:34:57.170Z,99935.25
2022-12-25T18:36:30.425Z,99935.81